MET'MAP v2.0
soon released !

Expected late october,
this new version will be
more efficient, smarter,
and hosted on a brand new
server x3 powerfull...
...and still free !


Not compatible ?
Try the mobile version !

LOG IN : | Subscribe | Disclaimer | Who is Orbifly ? |
ICAO code :

TAF - EGTG Bristol Filton - 13 Nov 2019 18:20 UTC
Data Sources :     NOAA   


- Airport Elevation : 226 ft
- IATA code : FZO
- No reported NOTAMs.


EGTG - Bristol Filton

Latest METAR recorded : 2012/12/21 11:50 EGTG 211150Z 26007KT 9999 FEW020 09/07 Q1011
Expired Forecast.

Source NOAA


MET'MAP, your aeronautical weather chart ! - Copyright ORBIFLY December 2007

Programming & Development : Alexandra Zaïnal
Co-Developer : Marc-Olivier Méhu
Technical & hardware support : Manuel Goepfert
Concept & Financing : Baudouin d'Aumeries